sensor_id;sensor_type;location;lat;lon;timestamp;pressure;altitude;pressure_sealevel;temperature;humidity
70488;BME280;57976;48.174;16.370;2023-01-15T00:01:28;98886.63;;;8.31;64.79
70488;BME280;57976;48.174;16.370;2023-01-15T00:03:33;98882.80;;;8.35;64.74
70488;BME280;57976;48.174;16.370;2023-01-15T00:05:38;98879.52;;;8.39;64.64
70488;BME280;57976;48.174;16.370;2023-01-15T00:07:43;98866.98;;;8.38;64.53
70488;BME280;57976;48.174;16.370;2023-01-15T00:09:48;98866.91;;;8.40;64.42
70488;BME280;57976;48.174;16.370;2023-01-15T00:11:53;98863.58;;;8.44;64.66
70488;BME280;57976;48.174;16.370;2023-01-15T00:13:58;98855.79;;;8.46;64.47
70488;BME280;57976;48.174;16.370;2023-01-15T00:16:07;98850.17;;;8.53;64.22
70488;BME280;57976;48.174;16.370;2023-01-15T00:18:12;98843.25;;;8.58;64.16
70488;BME280;57976;48.174;16.370;2023-01-15T00:20:17;98843.41;;;8.60;63.72
70488;BME280;57976;48.174;16.370;2023-01-15T00:22:22;98838.16;;;8.52;63.60
70488;BME280;57976;48.174;16.370;2023-01-15T00:24:27;98838.48;;;8.49;63.72
70488;BME280;57976;48.174;16.370;2023-01-15T00:26:32;98837.12;;;8.47;63.62
70488;BME280;57976;48.174;16.370;2023-01-15T00:28:37;98840.07;;;8.47;63.63
70488;BME280;57976;48.174;16.370;2023-01-15T00:30:42;98842.96;;;8.48;63.67
70488;BME280;57976;48.174;16.370;2023-01-15T00:32:47;98840.53;;;8.50;63.69
70488;BME280;57976;48.174;16.370;2023-01-15T00:34:52;98842.41;;;8.52;63.45
70488;BME280;57976;48.174;16.370;2023-01-15T00:36:57;98838.45;;;8.50;63.51
70488;BME280;57976;48.174;16.370;2023-01-15T00:39:02;98841.66;;;8.47;63.59
70488;BME280;57976;48.174;16.370;2023-01-15T00:41:07;98841.45;;;8.46;63.60
70488;BME280;57976;48.174;16.370;2023-01-15T00:43:11;98838.06;;;8.46;63.59
70488;BME280;57976;48.174;16.370;2023-01-15T00:45:16;98832.55;;;8.48;63.59
70488;BME280;57976;48.174;16.370;2023-01-15T00:47:23;98833.41;;;8.49;63.57
70488;BME280;57976;48.174;16.370;2023-01-15T00:49:27;98829.45;;;8.47;63.48
70488;BME280;57976;48.174;16.370;2023-01-15T00:51:32;98826.41;;;8.46;63.56
70488;BME280;57976;48.174;16.370;2023-01-15T00:53:37;98826.19;;;8.47;63.48
70488;BME280;57976;48.174;16.370;2023-01-15T00:55:42;98821.81;;;8.48;63.64
70488;BME280;57976;48.174;16.370;2023-01-15T00:57:47;98821.61;;;8.49;63.71
70488;BME280;57976;48.174;16.370;2023-01-15T00:59:52;98825.36;;;8.50;63.63
70488;BME280;57976;48.174;16.370;2023-01-15T01:01:57;98823.70;;;8.49;63.69
70488;BME280;57976;48.174;16.370;2023-01-15T01:04:02;98821.36;;;8.47;63.81
70488;BME280;57976;48.174;16.370;2023-01-15T01:06:07;98819.95;;;8.43;64.06
70488;BME280;57976;48.174;16.370;2023-01-15T01:08:12;98819.46;;;8.40;63.89
70488;BME280;57976;48.174;16.370;2023-01-15T01:10:17;98816.52;;;8.38;64.05
70488;BME280;57976;48.174;16.370;2023-01-15T01:12:26;98813.00;;;8.37;64.37
70488;BME280;57976;48.174;16.370;2023-01-15T01:14:31;98813.45;;;8.37;64.33
70488;BME280;57976;48.174;16.370;2023-01-15T01:16:38;98812.95;;;8.36;64.23
70488;BME280;57976;48.174;16.370;2023-01-15T01:18:43;98810.88;;;8.38;64.64
70488;BME280;57976;48.174;16.370;2023-01-15T01:20:48;98805.53;;;8.38;64.74
70488;BME280;57976;48.174;16.370;2023-01-15T01:22:53;98800.93;;;8.41;65.15
70488;BME280;57976;48.174;16.370;2023-01-15T01:24:58;98802.94;;;8.42;65.18
70488;BME280;57976;48.174;16.370;2023-01-15T01:27:03;98803.31;;;8.44;65.23
70488;BME280;57976;48.174;16.370;2023-01-15T01:29:10;98808.05;;;8.50;65.62
70488;BME280;57976;48.174;16.370;2023-01-15T01:31:15;98802.34;;;8.49;65.27
70488;BME280;57976;48.174;16.370;2023-01-15T01:33:20;98792.73;;;8.40;65.75
70488;BME280;57976;48.174;16.370;2023-01-15T01:35:25;98784.12;;;8.32;66.05
70488;BME280;57976;48.174;16.370;2023-01-15T01:37:30;98787.91;;;8.23;66.51
70488;BME280;57976;48.174;16.370;2023-01-15T01:39:35;98787.20;;;8.18;66.71
70488;BME280;57976;48.174;16.370;2023-01-15T01:41:41;98787.06;;;8.18;66.94
70488;BME280;57976;48.174;16.370;2023-01-15T01:43:57;98784.53;;;8.18;67.02
70488;BME280;57976;48.174;16.370;2023-01-15T01:46:02;98785.67;;;8.16;67.32
70488;BME280;57976;48.174;16.370;2023-01-15T01:48:08;98781.91;;;8.15;67.44
70488;BME280;57976;48.174;16.370;2023-01-15T01:50:14;98775.98;;;8.15;67.65
70488;BME280;57976;48.174;16.370;2023-01-15T01:52:21;98773.73;;;8.08;68.00
70488;BME280;57976;48.174;16.370;2023-01-15T01:54:29;98773.25;;;8.04;68.12
70488;BME280;57976;48.174;16.370;2023-01-15T01:56:36;98765.96;;;8.06;68.40
70488;BME280;57976;48.174;16.370;2023-01-15T01:58:42;98759.31;;;8.06;68.42
70488;BME280;57976;48.174;16.370;2023-01-15T02:00:49;98757.01;;;8.02;68.57
70488;BME280;57976;48.174;16.370;2023-01-15T02:02:55;98745.23;;;8.01;68.81
70488;BME280;57976;48.174;16.370;2023-01-15T02:05:00;98744.84;;;8.00;69.03
70488;BME280;57976;48.174;16.370;2023-01-15T02:07:06;98740.77;;;7.99;69.28
70488;BME280;57976;48.174;16.370;2023-01-15T02:09:11;98742.39;;;8.03;69.38
70488;BME280;57976;48.174;16.370;2023-01-15T02:11:19;98734.56;;;8.03;69.45
70488;BME280;57976;48.174;16.370;2023-01-15T02:13:31;98734.13;;;8.06;69.66
70488;BME280;57976;48.174;16.370;2023-01-15T02:15:42;98728.55;;;8.07;69.62
70488;BME280;57976;48.174;16.370;2023-01-15T02:17:52;98726.46;;;8.05;69.70
70488;BME280;57976;48.174;16.370;2023-01-15T02:20:21;98722.44;;;8.02;69.90
70488;BME280;57976;48.174;16.370;2023-01-15T02:22:34;98723.23;;;7.95;70.22
70488;BME280;57976;48.174;16.370;2023-01-15T02:24:52;98722.75;;;7.89;70.54
70488;BME280;57976;48.174;16.370;2023-01-15T02:27:08;98718.85;;;7.87;70.61
70488;BME280;57976;48.174;16.370;2023-01-15T02:29:18;98712.52;;;7.83;70.95
70488;BME280;57976;48.174;16.370;2023-01-15T02:31:29;98709.82;;;7.74;71.61
70488;BME280;57976;48.174;16.370;2023-01-15T02:33:38;98710.48;;;7.66;72.04
70488;BME280;57976;48.174;16.370;2023-01-15T02:35:47;98712.98;;;7.59;72.61
70488;BME280;57976;48.174;16.370;2023-01-15T02:37:58;98715.91;;;7.54;72.78
70488;BME280;57976;48.174;16.370;2023-01-15T02:40:06;98707.79;;;7.51;73.03
70488;BME280;57976;48.174;16.370;2023-01-15T02:42:12;98707.23;;;7.49;73.36
70488;BME280;57976;48.174;16.370;2023-01-15T02:44:23;98705.08;;;7.45;73.66
70488;BME280;57976;48.174;16.370;2023-01-15T02:46:33;98700.63;;;7.44;73.82
70488;BME280;57976;48.174;16.370;2023-01-15T02:48:43;98699.48;;;7.44;73.90
70488;BME280;57976;48.174;16.370;2023-01-15T02:50:53;98696.59;;;7.42;74.19
70488;BME280;57976;48.174;16.370;2023-01-15T02:53:03;98697.30;;;7.46;74.30
70488;BME280;57976;48.174;16.370;2023-01-15T02:55:15;98692.98;;;7.50;74.23
70488;BME280;57976;48.174;16.370;2023-01-15T02:57:22;98692.02;;;7.52;74.20
70488;BME280;57976;48.174;16.370;2023-01-15T02:59:35;98689.98;;;7.52;74.23
70488;BME280;57976;48.174;16.370;2023-01-15T03:01:44;98691.63;;;7.56;74.15
70488;BME280;57976;48.174;16.370;2023-01-15T03:03:57;98692.70;;;7.59;74.15
70488;BME280;57976;48.174;16.370;2023-01-15T03:06:06;98690.49;;;7.58;73.98
70488;BME280;57976;48.174;16.370;2023-01-15T03:08:12;98686.66;;;7.59;74.23
70488;BME280;57976;48.174;16.370;2023-01-15T03:10:17;98683.95;;;7.59;74.09
70488;BME280;57976;48.174;16.370;2023-01-15T03:12:26;98682.14;;;7.58;74.12
70488;BME280;57976;48.174;16.370;2023-01-15T03:14:37;98676.54;;;7.54;74.40
70488;BME280;57976;48.174;16.370;2023-01-15T03:16:48;98674.00;;;7.53;74.39
70488;BME280;57976;48.174;16.370;2023-01-15T03:18:58;98668.40;;;7.50;74.59
70488;BME280;57976;48.174;16.370;2023-01-15T03:21:07;98667.77;;;7.48;74.34
70488;BME280;57976;48.174;16.370;2023-01-15T03:23:14;98658.85;;;7.48;74.69
70488;BME280;57976;48.174;16.370;2023-01-15T03:25:22;98656.15;;;7.46;74.94
70488;BME280;57976;48.174;16.370;2023-01-15T03:27:29;98646.53;;;7.45;74.98
70488;BME280;57976;48.174;16.370;2023-01-15T03:29:37;98634.80;;;7.46;74.82
70488;BME280;57976;48.174;16.370;2023-01-15T03:31:42;98635.58;;;7.48;74.94
70488;BME280;57976;48.174;16.370;2023-01-15T03:33:48;98632.69;;;7.50;74.79
70488;BME280;57976;48.174;16.370;2023-01-15T03:35:57;98627.32;;;7.53;74.93
70488;BME280;57976;48.174;16.370;2023-01-15T03:38:08;98629.23;;;7.55;74.87
70488;BME280;57976;48.174;16.370;2023-01-15T03:40:14;98620.45;;;7.58;74.82
70488;BME280;57976;48.174;16.370;2023-01-15T03:42:29;98620.56;;;7.58;74.52
70488;BME280;57976;48.174;16.370;2023-01-15T03:44:42;98617.61;;;7.55;74.68
70488;BME280;57976;48.174;16.370;2023-01-15T03:46:56;98616.43;;;7.53;74.59
70488;BME280;57976;48.174;16.370;2023-01-15T03:49:08;98610.61;;;7.53;74.82
70488;BME280;57976;48.174;16.370;2023-01-15T03:51:23;98612.85;;;7.54;74.58
70488;BME280;57976;48.174;16.370;2023-01-15T03:53:35;98606.61;;;7.53;74.59
70488;BME280;57976;48.174;16.370;2023-01-15T03:55:47;98602.73;;;7.51;74.56
70488;BME280;57976;48.174;16.370;2023-01-15T03:57:57;98597.13;;;7.45;74.58
70488;BME280;57976;48.174;16.370;2023-01-15T04:00:10;98598.34;;;7.42;74.72
70488;BME280;57976;48.174;16.370;2023-01-15T04:02:21;98604.54;;;7.42;74.90
70488;BME280;57976;48.174;16.370;2023-01-15T04:04:28;98614.33;;;7.43;75.08
70488;BME280;57976;48.174;16.370;2023-01-15T04:06:35;98619.49;;;7.44;74.78
70488;BME280;57976;48.174;16.370;2023-01-15T04:08:44;98622.38;;;7.42;75.01
70488;BME280;57976;48.174;16.370;2023-01-15T04:10:54;98622.58;;;7.39;74.81
70488;BME280;57976;48.174;16.370;2023-01-15T04:13:01;98626.31;;;7.37;74.89
70488;BME280;57976;48.174;16.370;2023-01-15T04:15:09;98627.38;;;7.36;75.01
70488;BME280;57976;48.174;16.370;2023-01-15T04:17:13;98628.21;;;7.41;75.00
70488;BME280;57976;48.174;16.370;2023-01-15T04:19:18;98626.23;;;7.41;74.92
70488;BME280;57976;48.174;16.370;2023-01-15T04:21:30;98622.56;;;7.44;74.87
70488;BME280;57976;48.174;16.370;2023-01-15T04:23:35;98620.17;;;7.47;74.80
70488;BME280;57976;48.174;16.370;2023-01-15T04:25:39;98617.55;;;7.47;74.74
70488;BME280;57976;48.174;16.370;2023-01-15T04:27:44;98624.61;;;7.47;74.83
70488;BME280;57976;48.174;16.370;2023-01-15T04:29:49;98613.65;;;7.49;74.95
70488;BME280;57976;48.174;16.370;2023-01-15T04:31:53;98609.11;;;7.49;74.67
70488;BME280;57976;48.174;16.370;2023-01-15T04:33:58;98606.34;;;7.47;74.63
70488;BME280;57976;48.174;16.370;2023-01-15T04:36:04;98604.72;;;7.49;74.68
70488;BME280;57976;48.174;16.370;2023-01-15T04:38:09;98600.88;;;7.45;74.48
70488;BME280;57976;48.174;16.370;2023-01-15T04:40:14;98600.05;;;7.40;74.30
70488;BME280;57976;48.174;16.370;2023-01-15T04:42:19;98606.33;;;7.34;74.81
70488;BME280;57976;48.174;16.370;2023-01-15T04:44:23;98607.05;;;7.29;74.98
70488;BME280;57976;48.174;16.370;2023-01-15T04:46:28;98607.11;;;7.25;75.29
70488;BME280;57976;48.174;16.370;2023-01-15T04:48:33;98602.39;;;7.30;75.51
70488;BME280;57976;48.174;16.370;2023-01-15T04:50:38;98602.14;;;7.35;75.32
70488;BME280;57976;48.174;16.370;2023-01-15T04:52:44;98599.19;;;7.40;75.21
70488;BME280;57976;48.174;16.370;2023-01-15T04:54:48;98597.15;;;7.42;74.99
70488;BME280;57976;48.174;16.370;2023-01-15T04:56:54;98595.73;;;7.45;74.84
70488;BME280;57976;48.174;16.370;2023-01-15T04:59:04;98589.37;;;7.43;74.52
70488;BME280;57976;48.174;16.370;2023-01-15T05:01:12;98587.87;;;7.44;74.49
70488;BME280;57976;48.174;16.370;2023-01-15T05:03:18;98588.57;;;7.48;74.48
70488;BME280;57976;48.174;16.370;2023-01-15T05:05:23;98593.48;;;7.53;74.30
70488;BME280;57976;48.174;16.370;2023-01-15T05:07:27;98595.96;;;7.55;73.97
70488;BME280;57976;48.174;16.370;2023-01-15T05:09:33;98592.36;;;7.57;73.95
70488;BME280;57976;48.174;16.370;2023-01-15T05:11:40;98593.75;;;7.63;73.67
70488;BME280;57976;48.174;16.370;2023-01-15T05:13:45;98589.20;;;7.66;73.39
70488;BME280;57976;48.174;16.370;2023-01-15T05:15:49;98586.66;;;7.67;73.37
70488;BME280;57976;48.174;16.370;2023-01-15T05:17:55;98583.45;;;7.67;73.31
70488;BME280;57976;48.174;16.370;2023-01-15T05:20:00;98580.89;;;7.69;73.05
70488;BME280;57976;48.174;16.370;2023-01-15T05:22:04;98575.38;;;7.73;73.00
70488;BME280;57976;48.174;16.370;2023-01-15T05:24:13;98568.00;;;7.75;72.62
70488;BME280;57976;48.174;16.370;2023-01-15T05:26:18;98566.08;;;7.74;72.53
70488;BME280;57976;48.174;16.370;2023-01-15T05:28:23;98573.08;;;7.77;72.52
70488;BME280;57976;48.174;16.370;2023-01-15T05:30:28;98573.92;;;7.80;72.33
70488;BME280;57976;48.174;16.370;2023-01-15T05:32:33;98575.52;;;7.81;72.29
70488;BME280;57976;48.174;16.370;2023-01-15T05:34:38;98571.77;;;7.82;72.10
70488;BME280;57976;48.174;16.370;2023-01-15T05:36:42;98569.77;;;7.81;72.05
70488;BME280;57976;48.174;16.370;2023-01-15T05:38:47;98565.80;;;7.79;72.01
70488;BME280;57976;48.174;16.370;2023-01-15T05:40:52;98563.93;;;7.76;72.04
70488;BME280;57976;48.174;16.370;2023-01-15T05:42:57;98563.92;;;7.74;71.96
70488;BME280;57976;48.174;16.370;2023-01-15T05:45:01;98562.20;;;7.69;71.87
70488;BME280;57976;48.174;16.370;2023-01-15T05:47:06;98571.09;;;7.67;72.21
70488;BME280;57976;48.174;16.370;2023-01-15T05:49:13;98571.70;;;7.68;72.13
70488;BME280;57976;48.174;16.370;2023-01-15T05:51:18;98571.79;;;7.68;72.28
70488;BME280;57976;48.174;16.370;2023-01-15T05:53:26;98573.25;;;7.71;72.13
70488;BME280;57976;48.174;16.370;2023-01-15T05:55:30;98571.35;;;7.73;72.09
70488;BME280;57976;48.174;16.370;2023-01-15T05:57:35;98570.29;;;7.73;71.99
70488;BME280;57976;48.174;16.370;2023-01-15T05:59:40;98576.16;;;7.75;71.99
70488;BME280;57976;48.174;16.370;2023-01-15T06:01:45;98579.84;;;7.74;71.87
70488;BME280;57976;48.174;16.370;2023-01-15T06:03:50;98578.34;;;7.72;72.09
70488;BME280;57976;48.174;16.370;2023-01-15T06:05:55;98582.63;;;7.69;72.15
70488;BME280;57976;48.174;16.370;2023-01-15T06:08:00;98587.39;;;7.65;72.11
70488;BME280;57976;48.174;16.370;2023-01-15T06:10:06;98591.46;;;7.59;72.13
70488;BME280;57976;48.174;16.370;2023-01-15T06:12:11;98595.02;;;7.50;72.35
70488;BME280;57976;48.174;16.370;2023-01-15T06:14:16;98605.77;;;7.47;72.88
70488;BME280;57976;48.174;16.370;2023-01-15T06:16:20;98611.67;;;7.46;72.86
70488;BME280;57976;48.174;16.370;2023-01-15T06:18:25;98603.96;;;7.44;72.83
70488;BME280;57976;48.174;16.370;2023-01-15T06:20:30;98610.11;;;7.40;73.12
70488;BME280;57976;48.174;16.370;2023-01-15T06:22:35;98620.48;;;7.43;73.16
70488;BME280;57976;48.174;16.370;2023-01-15T06:24:40;98614.38;;;7.47;73.04
70488;BME280;57976;48.174;16.370;2023-01-15T06:26:45;98623.88;;;7.46;72.85
70488;BME280;57976;48.174;16.370;2023-01-15T06:28:49;98621.42;;;7.46;72.88
70488;BME280;57976;48.174;16.370;2023-01-15T06:30:54;98608.45;;;7.45;72.91
70488;BME280;57976;48.174;16.370;2023-01-15T06:32:59;98616.00;;;7.47;73.04
70488;BME280;57976;48.174;16.370;2023-01-15T06:35:04;98604.42;;;7.47;72.87
70488;BME280;57976;48.174;16.370;2023-01-15T06:37:09;98599.04;;;7.42;72.93
70488;BME280;57976;48.174;16.370;2023-01-15T06:39:14;98609.98;;;7.36;73.30
70488;BME280;57976;48.174;16.370;2023-01-15T06:41:22;98595.60;;;7.32;73.28
70488;BME280;57976;48.174;16.370;2023-01-15T06:43:27;98592.82;;;7.28;73.22
70488;BME280;57976;48.174;16.370;2023-01-15T06:45:35;98604.27;;;7.20;73.49
70488;BME280;57976;48.174;16.370;2023-01-15T06:47:40;98597.83;;;7.18;73.70
70488;BME280;57976;48.174;16.370;2023-01-15T06:49:45;98597.41;;;7.16;73.71
70488;BME280;57976;48.174;16.370;2023-01-15T06:51:50;98594.95;;;7.12;73.62
70488;BME280;57976;48.174;16.370;2023-01-15T06:53:55;98595.88;;;7.10;73.84
70488;BME280;57976;48.174;16.370;2023-01-15T06:56:01;98602.27;;;7.07;73.78
70488;BME280;57976;48.174;16.370;2023-01-15T06:58:05;98600.21;;;7.05;74.03
70488;BME280;57976;48.174;16.370;2023-01-15T07:00:12;98591.57;;;7.05;73.96
70488;BME280;57976;48.174;16.370;2023-01-15T07:02:17;98585.94;;;7.04;74.43
70488;BME280;57976;48.174;16.370;2023-01-15T07:04:22;98580.20;;;7.07;74.34
70488;BME280;57976;48.174;16.370;2023-01-15T07:06:26;98579.33;;;7.07;73.90
70488;BME280;57976;48.174;16.370;2023-01-15T07:08:31;98579.58;;;7.08;74.45
70488;BME280;57976;48.174;16.370;2023-01-15T07:10:36;98580.86;;;7.14;74.27
70488;BME280;57976;48.174;16.370;2023-01-15T07:12:40;98575.91;;;7.20;74.28
70488;BME280;57976;48.174;16.370;2023-01-15T07:14:45;98578.77;;;7.18;74.27
70488;BME280;57976;48.174;16.370;2023-01-15T07:16:51;98576.07;;;7.18;74.70
70488;BME280;57976;48.174;16.370;2023-01-15T07:18:56;98570.54;;;7.20;74.86
70488;BME280;57976;48.174;16.370;2023-01-15T07:21:01;98558.40;;;7.22;75.27
70488;BME280;57976;48.174;16.370;2023-01-15T07:23:06;98549.38;;;7.20;75.23
70488;BME280;57976;48.174;16.370;2023-01-15T07:25:11;98560.27;;;7.12;75.66
70488;BME280;57976;48.174;16.370;2023-01-15T07:27:18;98559.72;;;7.07;76.07
70488;BME280;57976;48.174;16.370;2023-01-15T07:29:23;98551.45;;;7.05;76.53
70488;BME280;57976;48.174;16.370;2023-01-15T07:31:28;98548.26;;;7.04;76.62
70488;BME280;57976;48.174;16.370;2023-01-15T07:33:33;98546.21;;;7.02;76.65
70488;BME280;57976;48.174;16.370;2023-01-15T07:35:38;98549.23;;;6.95;77.01
70488;BME280;57976;48.174;16.370;2023-01-15T07:37:42;98545.11;;;6.91;78.27
70488;BME280;57976;48.174;16.370;2023-01-15T07:39:47;98536.08;;;6.85;78.73
70488;BME280;57976;48.174;16.370;2023-01-15T07:41:52;98533.02;;;6.78;79.56
70488;BME280;57976;48.174;16.370;2023-01-15T07:43:57;98528.74;;;6.76;80.18
70488;BME280;57976;48.174;16.370;2023-01-15T07:46:02;98529.15;;;6.68;79.81
70488;BME280;57976;48.174;16.370;2023-01-15T07:48:09;98541.59;;;6.59;80.60
70488;BME280;57976;48.174;16.370;2023-01-15T07:50:16;98558.82;;;6.52;80.93
70488;BME280;57976;48.174;16.370;2023-01-15T07:52:22;98576.76;;;6.39;82.09
70488;BME280;57976;48.174;16.370;2023-01-15T07:54:27;98570.17;;;6.35;86.10
70488;BME280;57976;48.174;16.370;2023-01-15T07:56:31;98553.20;;;6.36;85.50
70488;BME280;57976;48.174;16.370;2023-01-15T07:58:36;98537.22;;;6.35;84.26
70488;BME280;57976;48.174;16.370;2023-01-15T08:00:41;98539.36;;;6.34;84.41
70488;BME280;57976;48.174;16.370;2023-01-15T08:02:46;98540.60;;;6.35;85.05
70488;BME280;57976;48.174;16.370;2023-01-15T08:04:51;98539.09;;;6.36;84.88
70488;BME280;57976;48.174;16.370;2023-01-15T08:06:57;98535.73;;;6.28;84.19
70488;BME280;57976;48.174;16.370;2023-01-15T08:09:02;98535.35;;;6.25;85.26
70488;BME280;57976;48.174;16.370;2023-01-15T08:11:07;98527.04;;;6.28;85.97
70488;BME280;57976;48.174;16.370;2023-01-15T08:13:12;98533.98;;;6.33;86.01
70488;BME280;57976;48.174;16.370;2023-01-15T08:15:17;98533.76;;;6.41;85.65
70488;BME280;57976;48.174;16.370;2023-01-15T08:17:21;98531.67;;;6.47;85.48
70488;BME280;57976;48.174;16.370;2023-01-15T08:19:26;98528.95;;;6.53;85.40
70488;BME280;57976;48.174;16.370;2023-01-15T08:21:31;98529.83;;;6.58;85.25
70488;BME280;57976;48.174;16.370;2023-01-15T08:23:35;98529.58;;;6.66;85.81
70488;BME280;57976;48.174;16.370;2023-01-15T08:25:40;98516.42;;;6.74;85.52
70488;BME280;57976;48.174;16.370;2023-01-15T08:27:45;98502.41;;;6.80;85.02
70488;BME280;57976;48.174;16.370;2023-01-15T08:29:50;98495.67;;;6.83;84.74
70488;BME280;57976;48.174;16.370;2023-01-15T08:31:55;98499.02;;;6.84;84.46
70488;BME280;57976;48.174;16.370;2023-01-15T08:33:59;98511.00;;;6.88;84.84
70488;BME280;57976;48.174;16.370;2023-01-15T08:36:05;98509.02;;;6.91;84.91
70488;BME280;57976;48.174;16.370;2023-01-15T08:38:09;98502.43;;;6.94;84.91
70488;BME280;57976;48.174;16.370;2023-01-15T08:40:14;98494.63;;;6.99;84.50
70488;BME280;57976;48.174;16.370;2023-01-15T08:42:19;98503.52;;;7.02;84.25
70488;BME280;57976;48.174;16.370;2023-01-15T08:44:24;98508.09;;;7.02;83.67
70488;BME280;57976;48.174;16.370;2023-01-15T08:46:29;98507.36;;;7.05;83.90
70488;BME280;57976;48.174;16.370;2023-01-15T08:48:34;98503.23;;;7.10;83.67
70488;BME280;57976;48.174;16.370;2023-01-15T08:50:39;98496.13;;;7.09;83.40
70488;BME280;57976;48.174;16.370;2023-01-15T08:52:43;98498.21;;;7.12;83.41
70488;BME280;57976;48.174;16.370;2023-01-15T08:54:48;98500.02;;;7.11;83.06
70488;BME280;57976;48.174;16.370;2023-01-15T08:56:53;98510.34;;;7.15;83.23
70488;BME280;57976;48.174;16.370;2023-01-15T08:58:57;98515.07;;;7.18;83.05
70488;BME280;57976;48.174;16.370;2023-01-15T09:01:06;98510.92;;;7.20;82.85
70488;BME280;57976;48.174;16.370;2023-01-15T09:03:11;98518.55;;;7.23;82.75
70488;BME280;57976;48.174;16.370;2023-01-15T09:05:16;98528.21;;;7.22;82.71
70488;BME280;57976;48.174;16.370;2023-01-15T09:07:21;98523.84;;;7.20;82.44
70488;BME280;57976;48.174;16.370;2023-01-15T09:09:26;98524.00;;;7.20;82.92
70488;BME280;57976;48.174;16.370;2023-01-15T09:11:30;98524.66;;;7.23;82.95
70488;BME280;57976;48.174;16.370;2023-01-15T09:13:37;98525.89;;;7.25;83.09
70488;BME280;57976;48.174;16.370;2023-01-15T09:15:42;98523.85;;;7.25;82.59
70488;BME280;57976;48.174;16.370;2023-01-15T09:17:47;98521.64;;;7.21;82.74
70488;BME280;57976;48.174;16.370;2023-01-15T09:19:51;98519.64;;;7.21;82.73
70488;BME280;57976;48.174;16.370;2023-01-15T09:21:56;98522.24;;;7.19;82.92
70488;BME280;57976;48.174;16.370;2023-01-15T09:24:01;98523.38;;;7.19;83.38
70488;BME280;57976;48.174;16.370;2023-01-15T09:26:07;98519.08;;;7.24;83.79
70488;BME280;57976;48.174;16.370;2023-01-15T09:28:11;98516.53;;;7.29;83.30
70488;BME280;57976;48.174;16.370;2023-01-15T09:30:19;98520.83;;;7.33;83.28
70488;BME280;57976;48.174;16.370;2023-01-15T09:32:24;98523.92;;;7.36;83.55
70488;BME280;57976;48.174;16.370;2023-01-15T09:34:28;98532.42;;;7.40;83.66
70488;BME280;57976;48.174;16.370;2023-01-15T09:36:34;98529.93;;;7.40;82.84
70488;BME280;57976;48.174;16.370;2023-01-15T09:38:39;98527.07;;;7.39;82.79
70488;BME280;57976;48.174;16.370;2023-01-15T09:40:48;98526.19;;;7.42;83.12
70488;BME280;57976;48.174;16.370;2023-01-15T09:42:57;98526.89;;;7.46;83.16
70488;BME280;57976;48.174;16.370;2023-01-15T09:45:17;98526.89;;;7.50;83.13
70488;BME280;57976;48.174;16.370;2023-01-15T09:47:29;98522.34;;;7.55;82.80
70488;BME280;57976;48.174;16.370;2023-01-15T09:49:45;98521.35;;;7.53;82.34
70488;BME280;57976;48.174;16.370;2023-01-15T09:51:56;98518.86;;;7.50;82.52
70488;BME280;57976;48.174;16.370;2023-01-15T09:54:22;98516.26;;;7.51;83.08
70488;BME280;57976;48.174;16.370;2023-01-15T09:56:29;98517.65;;;7.54;82.51
70488;BME280;57976;48.174;16.370;2023-01-15T09:58:37;98512.98;;;7.52;82.37
70488;BME280;57976;48.174;16.370;2023-01-15T10:00:47;98515.04;;;7.51;82.43
70488;BME280;57976;48.174;16.370;2023-01-15T10:02:56;98517.47;;;7.50;82.49
70488;BME280;57976;48.174;16.370;2023-01-15T10:05:08;98510.30;;;7.49;82.44
70488;BME280;57976;48.174;16.370;2023-01-15T10:07:19;98505.97;;;7.48;82.38
70488;BME280;57976;48.174;16.370;2023-01-15T10:09:30;98507.33;;;7.48;82.64
70488;BME280;57976;48.174;16.370;2023-01-15T10:11:39;98501.29;;;7.46;82.82
70488;BME280;57976;48.174;16.370;2023-01-15T10:13:48;98503.08;;;7.46;83.21
70488;BME280;57976;48.174;16.370;2023-01-15T10:15:53;98504.06;;;7.49;83.50
70488;BME280;57976;48.174;16.370;2023-01-15T10:18:01;98504.69;;;7.52;83.52
70488;BME280;57976;48.174;16.370;2023-01-15T10:20:14;98509.37;;;7.54;83.16
70488;BME280;57976;48.174;16.370;2023-01-15T10:22:29;98507.33;;;7.55;83.05
70488;BME280;57976;48.174;16.370;2023-01-15T10:24:38;98510.06;;;7.57;83.13
70488;BME280;57976;48.174;16.370;2023-01-15T10:26:51;98499.52;;;7.59;82.94
70488;BME280;57976;48.174;16.370;2023-01-15T10:29:02;98494.77;;;7.60;82.83
70488;BME280;57976;48.174;16.370;2023-01-15T10:31:18;98502.16;;;7.63;82.97
70488;BME280;57976;48.174;16.370;2023-01-15T10:33:38;98504.17;;;7.61;82.58
70488;BME280;57976;48.174;16.370;2023-01-15T10:35:48;98497.39;;;7.58;82.60
70488;BME280;57976;48.174;16.370;2023-01-15T10:38:04;98495.03;;;7.57;82.80
70488;BME280;57976;48.174;16.370;2023-01-15T10:40:23;98494.62;;;7.59;83.27
70488;BME280;57976;48.174;16.370;2023-01-15T10:42:39;98489.48;;;7.61;84.38
70488;BME280;57976;48.174;16.370;2023-01-15T10:44:50;98481.95;;;7.67;85.30
70488;BME280;57976;48.174;16.370;2023-01-15T10:47:01;98487.90;;;7.74;86.24
70488;BME280;57976;48.174;16.370;2023-01-15T10:49:13;98480.60;;;7.73;84.52
70488;BME280;57976;48.174;16.370;2023-01-15T10:51:20;98472.61;;;7.70;85.13
70488;BME280;57976;48.174;16.370;2023-01-15T10:53:33;98460.77;;;7.72;85.00
70488;BME280;57976;48.174;16.370;2023-01-15T10:55:43;98450.25;;;7.72;84.58
70488;BME280;57976;48.174;16.370;2023-01-15T10:57:54;98442.83;;;7.68;84.28
70488;BME280;57976;48.174;16.370;2023-01-15T11:00:14;98434.47;;;7.66;85.09
70488;BME280;57976;48.174;16.370;2023-01-15T11:02:29;98430.52;;;7.64;84.70
70488;BME280;57976;48.174;16.370;2023-01-15T11:04:36;98431.79;;;7.62;84.51
70488;BME280;57976;48.174;16.370;2023-01-15T11:06:41;98433.33;;;7.60;84.06
70488;BME280;57976;48.174;16.370;2023-01-15T11:08:49;98439.54;;;7.56;83.56
70488;BME280;57976;48.174;16.370;2023-01-15T11:11:21;98442.17;;;7.47;83.16
70488;BME280;57976;48.174;16.370;2023-01-15T11:13:27;98432.75;;;7.39;83.64